createdAt,value
2023-11-20T00:01:16.037Z,100.00
2023-11-20T00:03:43.571Z,100.00
2023-11-20T00:06:11.020Z,100.00
2023-11-20T00:08:37.740Z,100.00
2023-11-20T00:11:04.744Z,100.00
2023-11-20T00:13:31.477Z,100.00
2023-11-20T00:15:58.216Z,100.00
2023-11-20T00:18:25.000Z,100.00
2023-11-20T00:20:51.820Z,100.00
2023-11-20T00:23:18.518Z,100.00
2023-11-20T00:25:45.327Z,100.00
2023-11-20T00:28:12.150Z,100.00
2023-11-20T00:30:39.072Z,100.00
2023-11-20T00:33:05.908Z,100.00
2023-11-20T00:35:32.618Z,100.00
2023-11-20T00:37:59.480Z,100.00
2023-11-20T00:40:26.490Z,100.00
2023-11-20T00:42:53.166Z,100.00
2023-11-20T00:45:20.288Z,100.00
2023-11-20T00:47:47.092Z,100.00
2023-11-20T00:50:14.992Z,100.00
2023-11-20T00:52:41.684Z,100.00
2023-11-20T00:55:12.498Z,100.00
2023-11-20T00:57:39.862Z,100.00
2023-11-20T01:00:08.644Z,100.00
2023-11-20T01:02:35.760Z,100.00
2023-11-20T01:05:03.114Z,100.00
2023-11-20T01:07:29.821Z,100.00
2023-11-20T01:09:56.577Z,100.00
2023-11-20T01:12:23.469Z,100.00
2023-11-20T01:14:50.207Z,100.00
2023-11-20T01:17:18.400Z,100.00
2023-11-20T01:19:45.918Z,100.00
2023-11-20T01:22:12.614Z,100.00
2023-11-20T01:24:40.223Z,100.00
2023-11-20T01:27:08.248Z,100.00
2023-11-20T01:29:35.032Z,100.00
2023-11-20T01:32:01.868Z,100.00
2023-11-20T01:34:28.670Z,100.00
2023-11-20T01:36:55.515Z,100.00
2023-11-20T01:39:22.835Z,100.00
2023-11-20T01:41:49.566Z,100.00
2023-11-20T01:44:17.363Z,100.00
2023-11-20T01:46:44.755Z,100.00
2023-11-20T01:49:13.698Z,100.00
2023-11-20T01:51:40.919Z,100.00
2023-11-20T01:54:09.723Z,100.00
2023-11-20T01:56:36.888Z,100.00
2023-11-20T01:59:07.170Z,100.00
2023-11-20T02:01:35.281Z,100.00
2023-11-20T02:04:03.632Z,100.00
2023-11-20T02:06:30.876Z,100.00
2023-11-20T02:08:57.994Z,100.00
2023-11-20T02:11:27.399Z,100.00
2023-11-20T02:13:56.046Z,100.00
2023-11-20T02:16:23.126Z,100.00
2023-11-20T02:18:53.433Z,100.00
2023-11-20T02:21:20.425Z,100.00
2023-11-20T02:23:47.367Z,100.00
2023-11-20T02:26:37.111Z,100.00
2023-11-20T02:29:18.401Z,100.00
2023-11-20T02:31:45.265Z,100.00
2023-11-20T02:34:13.209Z,100.00
2023-11-20T02:36:40.128Z,100.00
2023-11-20T02:39:07.187Z,100.00
2023-11-20T02:41:33.954Z,100.00
2023-11-20T02:44:00.904Z,100.00
2023-11-20T02:46:27.648Z,100.00
2023-11-20T02:48:54.373Z,100.00
2023-11-20T02:51:21.181Z,100.00
2023-11-20T02:53:47.841Z,100.00
2023-11-20T02:56:14.778Z,100.00
2023-11-20T02:58:41.501Z,100.00
2023-11-20T03:01:10.619Z,100.00
2023-11-20T03:03:37.884Z,100.00
2023-11-20T03:06:04.911Z,100.00
2023-11-20T03:08:31.624Z,100.00
2023-11-20T03:10:58.326Z,100.00
2023-11-20T03:13:25.287Z,100.00
2023-11-20T03:15:52.565Z,100.00
2023-11-20T03:18:19.699Z,100.00
2023-11-20T03:20:46.974Z,100.00
2023-11-20T03:23:14.775Z,100.00
2023-11-20T03:25:41.976Z,100.00
2023-11-20T03:28:09.022Z,100.00
2023-11-20T03:30:35.796Z,100.00
2023-11-20T03:33:02.795Z,100.00
2023-11-20T03:35:29.791Z,100.00
2023-11-20T03:37:56.634Z,100.00
2023-11-20T03:40:23.704Z,100.00
2023-11-20T03:42:50.672Z,100.00
2023-11-20T03:45:17.773Z,100.00
2023-11-20T03:47:44.476Z,100.00
2023-11-20T03:50:12.579Z,100.00
2023-11-20T03:52:39.922Z,100.00
2023-11-20T03:55:07.412Z,100.00
2023-11-20T03:57:34.329Z,100.00
2023-11-20T04:00:01.125Z,100.00
2023-11-20T04:02:28.083Z,100.00
2023-11-20T04:04:55.413Z,100.00
2023-11-20T04:07:24.293Z,100.00
2023-11-20T04:09:51.205Z,100.00
2023-11-20T04:12:18.304Z,100.00
2023-11-20T04:14:45.814Z,100.00
2023-11-20T04:17:12.548Z,100.00
2023-11-20T04:19:39.746Z,100.00
2023-11-20T04:22:08.595Z,100.00
2023-11-20T04:24:35.393Z,100.00
2023-11-20T04:27:02.213Z,100.00
2023-11-20T04:29:28.898Z,100.00
2023-11-20T04:31:55.645Z,100.00
2023-11-20T04:34:22.357Z,100.00
2023-11-20T04:36:49.147Z,100.00
2023-11-20T04:39:16.106Z,100.00
2023-11-20T04:41:43.505Z,100.00
2023-11-20T04:44:10.289Z,100.00
2023-11-20T04:46:37.075Z,100.00
2023-11-20T04:49:03.831Z,100.00
2023-11-20T04:51:30.627Z,100.00
2023-11-20T04:53:57.368Z,100.00
2023-11-20T04:56:24.087Z,100.00
2023-11-20T04:58:50.895Z,100.00
2023-11-20T05:01:17.737Z,100.00
2023-11-20T05:03:47.372Z,100.00
2023-11-20T05:06:15.998Z,100.00
2023-11-20T05:08:42.686Z,100.00
2023-11-20T05:11:09.447Z,100.00
2023-11-20T05:13:36.354Z,100.00
2023-11-20T05:16:03.136Z,100.00
2023-11-20T05:18:30.096Z,100.00
2023-11-20T05:20:56.860Z,100.00
2023-11-20T05:23:23.593Z,100.00
2023-11-20T05:25:50.427Z,100.00
2023-11-20T05:28:17.663Z,100.00
2023-11-20T05:30:44.450Z,100.00
2023-11-20T05:33:12.035Z,100.00
2023-11-20T05:35:40.410Z,100.00
2023-11-20T05:38:07.454Z,100.00
2023-11-20T05:40:34.465Z,100.00
2023-11-20T05:43:01.628Z,100.00
2023-11-20T05:45:28.791Z,100.00
2023-11-20T05:47:55.588Z,100.00
2023-11-20T05:50:22.714Z,100.00
2023-11-20T05:52:49.474Z,100.00
2023-11-20T05:55:16.542Z,100.00
2023-11-20T05:57:43.254Z,100.00
2023-11-20T06:00:12.108Z,100.00
2023-11-20T06:02:39.520Z,100.00
2023-11-20T06:05:09.886Z,100.00
2023-11-20T06:07:37.001Z,100.00
2023-11-20T06:10:04.403Z,100.00
2023-11-20T06:12:31.339Z,100.00
2023-11-20T06:14:58.198Z,100.00
2023-11-20T06:17:25.675Z,100.00
2023-11-20T06:19:53.042Z,100.00
2023-11-20T06:22:20.360Z,100.00
2023-11-20T06:24:47.932Z,100.00
2023-11-20T06:27:14.735Z,100.00
2023-11-20T06:29:42.952Z,100.00
2023-11-20T06:32:11.449Z,100.00
2023-11-20T06:34:38.159Z,100.00
2023-11-20T06:37:05.532Z,100.00
2023-11-20T06:39:32.568Z,100.00
2023-11-20T06:41:59.308Z,100.00
2023-11-20T06:44:26.087Z,100.00
2023-11-20T06:46:54.391Z,100.00
2023-11-20T06:49:21.651Z,100.00
2023-11-20T06:51:48.598Z,100.00
2023-11-20T06:54:15.543Z,100.00
2023-11-20T06:56:42.255Z,100.00
2023-11-20T06:59:09.184Z,100.00
2023-11-20T07:01:36.257Z,100.00
2023-11-20T07:04:03.868Z,100.00
2023-11-20T07:06:30.903Z,100.00
2023-11-20T07:08:57.949Z,100.00
2023-11-20T07:11:24.916Z,100.00
2023-11-20T07:13:51.641Z,100.00
2023-11-20T07:16:18.417Z,100.00
2023-11-20T07:18:45.823Z,100.00
2023-11-20T07:21:12.969Z,100.00
2023-11-20T07:23:39.892Z,100.00
2023-11-20T07:26:07.079Z,100.00
2023-11-20T07:28:35.314Z,100.00
2023-11-20T07:31:02.324Z,100.00
2023-11-20T07:33:29.145Z,100.00
2023-11-20T07:35:56.770Z,100.00
2023-11-20T07:38:23.894Z,100.00
2023-11-20T07:40:51.803Z,100.00
2023-11-20T07:43:21.161Z,100.00
2023-11-20T07:45:48.419Z,100.00
2023-11-20T07:48:15.388Z,100.00
2023-11-20T07:50:42.283Z,100.00
2023-11-20T07:53:09.022Z,100.00
2023-11-20T07:55:35.834Z,100.00
2023-11-20T07:58:02.774Z,100.00
2023-11-20T08:00:29.587Z,100.00
2023-11-20T08:02:56.295Z,100.00
2023-11-20T08:05:23.215Z,100.00
2023-11-20T08:07:50.553Z,100.00
2023-11-20T08:10:19.677Z,100.00
2023-11-20T08:12:48.203Z,100.00
2023-11-20T08:15:15.513Z,100.00
2023-11-20T08:17:43.172Z,100.00
2023-11-20T08:20:12.452Z,100.00
2023-11-20T08:22:41.097Z,100.00
2023-11-20T08:25:09.423Z,100.00
2023-11-20T08:27:41.000Z,100.00
2023-11-20T08:30:11.699Z,100.00
2023-11-20T08:32:39.261Z,100.00
2023-11-20T08:35:07.860Z,100.00
2023-11-20T08:37:34.698Z,100.00
2023-11-20T08:40:03.114Z,100.00
2023-11-20T08:42:30.594Z,100.00
2023-11-20T08:44:57.382Z,100.00
2023-11-20T08:47:25.163Z,100.00
2023-11-20T08:49:53.944Z,100.00
2023-11-20T08:52:21.194Z,100.00
2023-11-20T08:54:48.196Z,100.00
2023-11-20T08:57:15.028Z,100.00
2023-11-20T08:59:41.778Z,100.00
2023-11-20T09:02:09.699Z,100.00
2023-11-20T09:04:36.699Z,100.00
2023-11-20T09:07:04.009Z,100.00
2023-11-20T09:09:31.018Z,100.00
2023-11-20T09:11:57.853Z,100.00
2023-11-20T09:14:24.739Z,100.00
2023-11-20T09:16:51.490Z,100.00
2023-11-20T09:19:18.297Z,100.00
2023-11-20T09:21:45.176Z,100.00
2023-11-20T09:24:12.000Z,100.00
2023-11-20T09:26:39.814Z,100.00
2023-11-20T09:29:08.061Z,100.00
2023-11-20T09:31:36.210Z,100.00
2023-11-20T09:34:02.997Z,100.00
2023-11-20T09:36:30.262Z,100.00
2023-11-20T09:38:57.004Z,100.00
2023-11-20T09:41:24.340Z,100.00
2023-11-20T09:43:52.311Z,100.00
2023-11-20T09:46:20.493Z,100.00
2023-11-20T09:48:50.313Z,100.00
2023-11-20T09:51:22.435Z,100.00
2023-11-20T09:53:53.895Z,100.00
2023-11-20T09:56:21.373Z,100.00
2023-11-20T09:58:49.259Z,100.00
2023-11-20T10:01:16.422Z,100.00
2023-11-20T10:03:45.366Z,100.00
2023-11-20T10:06:15.639Z,100.00
2023-11-20T10:08:45.253Z,100.00
2023-11-20T10:11:17.761Z,100.00
2023-11-20T10:13:44.634Z,100.00
2023-11-20T10:16:18.981Z,100.00
2023-11-20T10:18:46.421Z,100.00
2023-11-20T10:21:15.324Z,100.00
2023-11-20T10:23:44.421Z,100.00
2023-11-20T10:26:12.402Z,100.00
2023-11-20T10:28:42.621Z,100.00
2023-11-20T10:31:10.066Z,100.00
2023-11-20T10:33:37.790Z,100.00
2023-11-20T10:36:15.620Z,100.00
2023-11-20T10:38:43.600Z,100.00
2023-11-20T10:41:12.231Z,100.00
2023-11-20T10:43:39.928Z,100.00
2023-11-20T10:46:07.571Z,100.00
2023-11-20T10:48:38.221Z,100.00
2023-11-20T10:51:10.092Z,100.00
2023-11-20T10:53:41.178Z,100.00
2023-11-20T10:56:10.179Z,100.00
2023-11-20T10:58:37.696Z,100.00
2023-11-20T11:01:08.480Z,100.00
2023-11-20T11:03:38.698Z,100.00
2023-11-20T11:06:11.970Z,100.00
2023-11-20T11:08:44.590Z,100.00
2023-11-20T11:11:14.416Z,100.00
2023-11-20T11:13:44.360Z,100.00
2023-11-20T11:16:15.952Z,100.00
2023-11-20T11:18:49.674Z,100.00
2023-11-20T11:21:19.939Z,100.00
2023-11-20T11:23:50.478Z,100.00
2023-11-20T11:26:24.075Z,100.00
2023-11-20T11:28:56.028Z,100.00
2023-11-20T11:31:27.789Z,100.00
2023-11-20T11:34:27.406Z,100.00
2023-11-20T11:37:06.758Z,100.00
2023-11-20T11:39:41.418Z,100.00
2023-11-20T11:42:14.782Z,100.00
2023-11-20T11:44:49.138Z,100.00
2023-11-20T11:47:17.854Z,100.00
2023-11-20T11:49:50.253Z,100.00
2023-11-20T11:52:21.141Z,100.00
2023-11-20T11:54:48.090Z,100.00
2023-11-20T11:57:21.036Z,100.00
2023-11-20T11:59:48.883Z,100.00
2023-11-20T12:02:19.981Z,100.00
2023-11-20T12:05:09.385Z,100.00
2023-11-20T12:07:51.613Z,100.00
2023-11-20T12:10:18.737Z,100.00
2023-11-20T12:13:09.700Z,100.00
2023-11-20T12:15:39.148Z,100.00
2023-11-20T12:18:10.191Z,100.00
2023-11-20T12:20:38.966Z,100.00
2023-11-20T12:23:09.259Z,100.00
2023-11-20T12:25:39.110Z,100.00
2023-11-20T12:28:07.039Z,100.00
2023-11-20T12:30:34.489Z,100.00
2023-11-20T12:33:01.397Z,100.00
2023-11-20T12:35:28.226Z,100.00
2023-11-20T12:37:55.514Z,100.00
2023-11-20T12:40:22.802Z,100.00
2023-11-20T12:42:49.669Z,100.00
2023-11-20T12:45:16.562Z,100.00
2023-11-20T12:47:43.390Z,100.00
2023-11-20T12:50:14.989Z,100.00
2023-11-20T12:52:43.085Z,100.00
2023-11-20T12:55:12.639Z,100.00
2023-11-20T12:57:40.042Z,100.00
2023-11-20T13:00:11.369Z,100.00
2023-11-20T13:02:38.155Z,100.00
2023-11-20T13:05:13.776Z,100.00
2023-11-20T13:07:43.465Z,100.00
2023-11-20T13:10:12.912Z,100.00
2023-11-20T13:12:41.520Z,100.00
2023-11-20T13:15:10.742Z,100.00
2023-11-20T13:17:41.308Z,100.00
2023-11-20T13:20:29.872Z,100.00
2023-11-20T13:22:56.591Z,100.00
2023-11-20T13:25:26.084Z,100.00
2023-11-20T13:27:53.014Z,100.00
2023-11-20T13:30:22.610Z,100.00
2023-11-20T13:32:49.633Z,100.00
2023-11-20T13:35:17.300Z,100.00
2023-11-20T13:37:44.489Z,100.00
2023-11-20T13:40:15.810Z,100.00
2023-11-20T13:42:44.238Z,100.00
2023-11-20T13:45:14.539Z,100.00
2023-11-20T13:47:42.192Z,100.00
2023-11-20T13:50:12.816Z,100.00
2023-11-20T13:52:39.928Z,100.00
2023-11-20T13:55:08.171Z,100.00
2023-11-20T13:57:35.347Z,100.00
2023-11-20T14:00:04.780Z,100.00
2023-11-20T14:02:39.659Z,100.00
2023-11-20T14:05:07.495Z,100.00
2023-11-20T14:07:34.872Z,100.00
2023-11-20T14:10:02.476Z,100.00
2023-11-20T14:12:29.320Z,100.00
2023-11-20T14:14:57.700Z,100.00
2023-11-20T14:17:27.659Z,100.00
2023-11-20T14:19:54.771Z,100.00
2023-11-20T14:22:22.524Z,100.00
2023-11-20T14:24:49.436Z,100.00
2023-11-20T14:27:16.306Z,100.00
2023-11-20T14:29:43.575Z,100.00
2023-11-20T14:32:10.415Z,100.00
2023-11-20T14:34:37.490Z,100.00
2023-11-20T14:37:06.077Z,100.00
2023-11-20T14:39:33.129Z,100.00
2023-11-20T14:42:00.266Z,100.00
2023-11-20T14:44:27.556Z,100.00
2023-11-20T14:46:54.477Z,100.00
2023-11-20T14:49:21.377Z,99.96
2023-11-20T14:51:48.141Z,99.80
2023-11-20T14:54:15.016Z,100.00
2023-11-20T14:56:42.341Z,100.00
2023-11-20T14:59:10.434Z,100.00
2023-11-20T15:01:37.404Z,100.00
2023-11-20T15:04:04.483Z,100.00
2023-11-20T15:06:31.714Z,100.00
2023-11-20T15:08:58.521Z,100.00
2023-11-20T15:11:26.560Z,100.00
2023-11-20T15:13:57.374Z,100.00
2023-11-20T15:16:24.550Z,100.00
2023-11-20T15:18:51.457Z,100.00
2023-11-20T15:21:19.061Z,100.00
2023-11-20T15:23:45.903Z,100.00
2023-11-20T15:26:14.004Z,100.00
2023-11-20T15:28:40.858Z,100.00
2023-11-20T15:31:08.276Z,100.00
2023-11-20T15:33:35.301Z,100.00
2023-11-20T15:36:02.240Z,100.00
2023-11-20T15:38:29.114Z,100.00
2023-11-20T15:40:56.001Z,100.00
2023-11-20T15:43:22.912Z,100.00
2023-11-20T15:45:53.022Z,100.00
2023-11-20T15:48:22.545Z,100.00
2023-11-20T15:50:49.256Z,100.00
2023-11-20T15:53:16.129Z,100.00
2023-11-20T15:55:43.023Z,99.99
2023-11-20T15:58:10.182Z,99.99
2023-11-20T16:00:37.235Z,99.91
2023-11-20T16:03:04.930Z,99.99
2023-11-20T16:05:32.201Z,99.92
2023-11-20T16:07:59.264Z,99.66
2023-11-20T16:10:26.228Z,99.64
2023-11-20T16:12:53.226Z,99.51
2023-11-20T16:15:20.068Z,99.67
2023-11-20T16:20:17.236Z,99.88
2023-11-20T16:22:44.486Z,99.66
2023-11-20T16:25:12.706Z,99.67
2023-11-20T16:27:40.946Z,99.76
2023-11-20T16:30:10.402Z,100.00
2023-11-20T16:32:37.539Z,99.99
2023-11-20T16:35:07.166Z,99.99
2023-11-20T16:37:34.106Z,99.93
2023-11-20T16:40:01.416Z,99.68
2023-11-20T16:42:30.030Z,99.71
2023-11-20T16:44:56.933Z,99.46
2023-11-20T16:47:23.724Z,99.46
2023-11-20T16:49:50.510Z,99.41
2023-11-20T16:52:17.338Z,99.32
2023-11-20T16:54:44.199Z,99.26
2023-11-20T16:57:12.431Z,99.42
2023-11-20T16:59:39.556Z,99.25
2023-11-20T17:02:06.985Z,99.54
2023-11-20T17:04:33.832Z,99.79
2023-11-20T17:07:00.708Z,99.96
2023-11-20T17:09:27.843Z,99.95
2023-11-20T17:11:54.644Z,100.00
2023-11-20T17:14:21.658Z,99.91
2023-11-20T17:16:48.936Z,99.95
2023-11-20T17:19:16.038Z,99.97
2023-11-20T17:21:42.934Z,99.97
2023-11-20T17:24:10.697Z,100.00
2023-11-20T17:26:37.641Z,99.97
2023-11-20T17:29:05.477Z,99.92
2023-11-20T17:31:33.156Z,99.88
2023-11-20T17:34:00.854Z,99.62
2023-11-20T17:36:28.077Z,99.54
2023-11-20T17:38:55.551Z,99.74
2023-11-20T17:41:22.530Z,99.88
2023-11-20T17:43:49.395Z,99.80
2023-11-20T17:46:16.245Z,99.68
2023-11-20T17:48:43.102Z,99.75
2023-11-20T17:51:12.162Z,99.88
2023-11-20T17:53:39.003Z,99.84
2023-11-20T17:56:09.781Z,99.83
2023-11-20T17:58:36.822Z,99.69
2023-11-20T18:01:05.089Z,99.57
2023-11-20T18:03:34.233Z,99.61
2023-11-20T18:06:02.530Z,99.73
2023-11-20T18:08:30.779Z,99.59
2023-11-20T18:10:57.578Z,99.73
2023-11-20T18:13:24.517Z,99.85
2023-11-20T18:15:51.480Z,99.87
2023-11-20T18:18:18.678Z,99.53
2023-11-20T18:20:45.615Z,99.26
2023-11-20T18:23:12.453Z,99.20
2023-11-20T18:25:40.243Z,99.14
2023-11-20T18:28:08.151Z,99.36
2023-11-20T18:30:35.297Z,99.46
2023-11-20T18:33:02.313Z,99.66
2023-11-20T18:35:29.107Z,99.68
2023-11-20T18:37:55.873Z,99.60
2023-11-20T18:40:24.912Z,99.77
2023-11-20T18:42:54.229Z,99.98
2023-11-20T18:45:23.116Z,99.96
2023-11-20T18:47:50.656Z,100.00
2023-11-20T18:50:17.744Z,99.88
2023-11-20T18:52:45.273Z,99.86
2023-11-20T18:55:12.753Z,99.60
2023-11-20T18:57:39.678Z,99.32
2023-11-20T19:00:08.730Z,99.43
2023-11-20T19:02:36.370Z,99.45
2023-11-20T19:05:03.665Z,99.44
2023-11-20T19:07:30.936Z,99.47
2023-11-20T19:09:57.726Z,99.53
2023-11-20T19:12:24.633Z,99.74
2023-11-20T19:14:51.684Z,99.99
2023-11-20T19:17:18.619Z,99.91
2023-11-20T19:19:45.411Z,99.70
2023-11-20T19:22:12.177Z,99.58
2023-11-20T19:24:39.022Z,99.60
2023-11-20T19:27:07.679Z,99.57
2023-11-20T19:29:34.467Z,99.28
2023-11-20T19:32:01.813Z,99.13
2023-11-20T19:34:28.703Z,99.22
2023-11-20T19:36:55.868Z,99.25
2023-11-20T19:39:24.019Z,99.36
2023-11-20T19:41:53.817Z,99.50
2023-11-20T19:44:20.670Z,99.70
2023-11-20T19:46:47.463Z,99.89
2023-11-20T19:49:14.399Z,99.65
2023-11-20T19:51:41.229Z,99.56
2023-11-20T19:54:08.206Z,99.63
2023-11-20T19:56:35.534Z,99.43
2023-11-20T19:59:02.795Z,99.50
2023-11-20T20:01:29.858Z,99.38
2023-11-20T20:03:58.227Z,98.90
2023-11-20T20:06:25.169Z,98.35
2023-11-20T20:08:52.274Z,98.45
2023-11-20T20:11:20.757Z,98.66
2023-11-20T20:13:47.907Z,98.98
2023-11-20T20:16:15.135Z,99.03
2023-11-20T20:18:42.326Z,98.85
2023-11-20T20:21:10.060Z,98.66
2023-11-20T20:23:37.059Z,99.00
2023-11-20T20:26:05.233Z,98.52
2023-11-20T20:28:33.957Z,98.57
2023-11-20T20:31:01.122Z,98.49
2023-11-20T20:33:29.252Z,98.82
2023-11-20T20:35:56.064Z,98.96
2023-11-20T20:38:22.914Z,99.17
2023-11-20T20:40:49.728Z,99.36
2023-11-20T20:43:16.725Z,99.49
2023-11-20T20:45:45.024Z,99.33
2023-11-20T20:48:12.232Z,99.07
2023-11-20T20:50:39.865Z,98.82
2023-11-20T20:53:07.092Z,98.52
2023-11-20T20:55:33.992Z,98.48
2023-11-20T20:58:01.693Z,98.40
2023-11-20T21:00:34.831Z,98.47
2023-11-20T21:03:01.866Z,98.44
2023-11-20T21:05:29.868Z,98.42
2023-11-20T21:07:58.384Z,98.24
2023-11-20T21:10:27.196Z,98.42
2023-11-20T21:12:54.161Z,98.28
2023-11-20T21:15:21.351Z,98.18
2023-11-20T21:17:49.750Z,98.29
2023-11-20T21:20:17.504Z,98.27
2023-11-20T21:22:45.794Z,98.32
2023-11-20T21:25:14.259Z,98.37
2023-11-20T21:27:41.179Z,98.35
2023-11-20T21:30:09.881Z,98.53
2023-11-20T21:32:37.062Z,98.70
2023-11-20T21:35:05.927Z,98.52
2023-11-20T21:37:33.158Z,98.53
2023-11-20T21:40:00.137Z,98.40
2023-11-20T21:42:27.672Z,98.40
2023-11-20T21:44:54.557Z,98.48
2023-11-20T21:47:21.582Z,98.55
2023-11-20T21:49:48.304Z,98.52
2023-11-20T21:52:15.399Z,98.70
2023-11-20T21:54:42.502Z,98.59
2023-11-20T21:57:10.175Z,98.48
2023-11-20T21:59:37.389Z,98.25
2023-11-20T22:02:05.856Z,98.16
2023-11-20T22:04:32.857Z,97.94
2023-11-20T22:07:00.091Z,97.79
2023-11-20T22:09:26.869Z,97.70
2023-11-20T22:11:55.302Z,97.79
2023-11-20T22:14:22.003Z,98.00
2023-11-20T22:16:48.809Z,98.18
2023-11-20T22:19:16.568Z,98.22
2023-11-20T22:21:43.583Z,98.23
2023-11-20T22:24:12.033Z,98.27
2023-11-20T22:26:38.677Z,98.42
2023-11-20T22:29:05.793Z,98.51
2023-11-20T22:31:32.769Z,98.44
2023-11-20T22:34:01.937Z,98.10
2023-11-20T22:36:28.893Z,97.70
2023-11-20T22:38:58.508Z,97.60
2023-11-20T22:41:25.239Z,97.45
2023-11-20T22:43:52.059Z,97.50
2023-11-20T22:46:20.321Z,97.37
2023-11-20T22:48:47.097Z,97.41
2023-11-20T22:51:13.937Z,97.66
2023-11-20T22:53:41.994Z,97.71
2023-11-20T22:56:10.829Z,97.51
2023-11-20T22:58:38.009Z,97.48
2023-11-20T23:01:07.076Z,97.15
2023-11-20T23:03:34.013Z,97.03
2023-11-20T23:06:01.452Z,96.75
2023-11-20T23:08:28.222Z,96.77
2023-11-20T23:10:56.964Z,96.58
2023-11-20T23:13:23.736Z,96.69
2023-11-20T23:15:50.634Z,96.78
2023-11-20T23:18:17.783Z,96.86
2023-11-20T23:20:45.318Z,96.79
2023-11-20T23:23:12.561Z,96.76
2023-11-20T23:25:39.929Z,96.70
2023-11-20T23:28:07.037Z,96.67
2023-11-20T23:30:34.201Z,96.73
2023-11-20T23:33:01.612Z,96.67
2023-11-20T23:35:28.777Z,96.35
2023-11-20T23:37:55.584Z,96.29
2023-11-20T23:40:23.491Z,96.61
2023-11-20T23:42:51.247Z,96.57
2023-11-20T23:45:19.206Z,96.74
2023-11-20T23:47:47.199Z,96.87
2023-11-20T23:50:16.041Z,96.76
2023-11-20T23:52:43.119Z,97.06
2023-11-20T23:55:10.981Z,96.90
2023-11-20T23:57:37.902Z,96.73
